Time;durP1;ratioP1;P1;durP2;ratioP2;P2;SDS_P1;SDS_P2;PMS_P1;PMS_P2;Temp;Humidity;BMP_temperature;BMP_pressure;BME280_temperature;BME280_humidity;BME280_pressure;Samples;Min_cycle;Max_cycle;Signal;HPM_P1;HPM_P2
2023/09/18 03:54:14;;;;;;;13.00;6.70;;;;;;;16.77;100.00;100629.09;6159496;28;20073;31
2023/09/18 03:57:18;;;;;;;12.18;7.37;;;;;;;16.77;100.00;100639.97;5182137;34;34542;-84
2023/09/18 04:00:22;;;;;;;12.10;6.55;;;;;;;16.74;100.00;100637.66;5171654;34;33410;-84
2023/09/18 04:03:25;;;;;;;9.80;6.53;;;;;;;16.69;100.00;100638.28;5184168;34;33497;-84
2023/09/18 04:06:46;;;;;;;10.05;6.57;;;;;;;16.65;100.00;100626.16;5197950;34;33455;-84
2023/09/18 04:09:49;;;;;;;13.73;6.70;;;;;;;16.66;100.00;100624.28;5192265;34;33461;-84
2023/09/18 04:12:52;;;;;;;10.27;6.32;;;;;;;16.60;100.00;100622.41;5200250;34;33294;-84
2023/09/18 04:15:57;;;;;;;10.80;6.05;;;;;;;16.63;100.00;100624.69;5180029;34;34656;-84
2023/09/18 04:19:00;;;;;;;11.55;6.82;;;;;;;16.65;100.00;100622.63;5177615;34;33690;-84
2023/09/18 04:22:03;;;;;;;8.77;5.80;;;;;;;16.63;100.00;100616.53;5193002;34;33297;-84
2023/09/18 04:25:07;;;;;;;10.43;7.30;;;;;;;16.62;100.00;100620.31;5201803;34;33437;-85
2023/09/18 04:28:10;;;;;;;11.02;7.05;;;;;;;16.62;100.00;100618.44;5201987;34;33003;-89
2023/09/18 04:31:13;;;;;;;9.75;6.35;;;;;;;16.65;100.00;100614.47;5191591;34;33303;-89
2023/09/18 04:34:16;;;;;;;11.52;7.55;;;;;;;16.64;100.00;100616.31;5191584;34;33559;-89
2023/09/18 04:37:19;;;;;;;12.27;6.00;;;;;;;16.61;100.00;100619.47;5191009;34;33491;-89
2023/09/18 04:40:23;;;;;;;10.38;7.03;;;;;;;16.62;100.00;100614.88;5199340;34;33311;-85
2023/09/18 04:43:29;;;;;;;12.43;6.68;;;;;;;16.68;100.00;100617.59;5203260;34;33456;-85
2023/09/18 04:46:35;;;;;;;12.55;6.93;;;;;;;16.72;100.00;100620.72;5191494;34;33653;-85
2023/09/18 04:49:38;;;;;;;12.10;7.72;;;;;;;16.77;100.00;100624.50;5203405;34;33392;-85
2023/09/18 04:52:42;;;;;;;10.77;7.10;;;;;;;16.78;100.00;100628.03;5203284;34;34536;-85
2023/09/18 04:55:49;;;;;;;14.05;7.43;;;;;;;16.76;100.00;100622.00;5201488;34;33383;-85
2023/09/18 04:58:52;;;;;;;12.10;7.35;;;;;;;16.77;100.00;100624.50;5203837;34;33430;-85
2023/09/18 05:01:56;;;;;;;11.18;6.47;;;;;;;16.85;100.00;100630.75;5191101;34;34095;-85
2023/09/18 05:04:59;;;;;;;11.00;6.90;;;;;;;16.92;100.00;100620.69;5190793;34;34564;-85
2023/09/18 05:08:07;;;;;;;15.40;7.70;;;;;;;16.92;100.00;100624.25;5190696;34;33356;-85
2023/09/18 05:11:11;;;;;;;11.38;6.70;;;;;;;16.99;100.00;100622.34;5203131;34;33441;-85
2023/09/18 05:14:16;;;;;;;12.52;6.97;;;;;;;17.09;100.00;100621.91;5202855;34;33449;-85
2023/09/18 05:17:20;;;;;;;12.02;6.55;;;;;;;17.20;100.00;100634.00;5203288;34;33629;-85
2023/09/18 05:20:24;;;;;;;9.73;6.47;;;;;;;17.22;100.00;100615.56;5191217;34;33424;-85
2023/09/18 05:23:27;;;;;;;12.13;7.07;;;;;;;17.28;100.00;100614.69;5203358;34;33446;-85
2023/09/18 05:26:31;;;;;;;10.77;6.40;;;;;;;17.40;100.00;100618.44;5190765;34;33826;-85
2023/09/18 05:29:37;;;;;;;16.33;7.60;;;;;;;17.45;100.00;100615.88;5190274;34;34198;-85
2023/09/18 05:32:42;;;;;;;11.12;7.43;;;;;;;17.53;100.00;100611.25;5202764;34;33388;-85
2023/09/18 05:35:45;;;;;;;9.82;6.18;;;;;;;17.64;100.00;100618.72;5201866;34;34178;-85
2023/09/18 05:38:48;;;;;;;9.35;6.68;;;;;;;17.74;100.00;100624.50;5180100;34;33824;-84
2023/09/18 05:41:51;;;;;;;9.55;6.25;;;;;;;17.89;100.00;100616.06;5188870;34;34525;-85
2023/09/18 05:44:54;;;;;;;10.48;6.72;;;;;;;17.96;100.00;100616.87;5182776;34;33459;-85
2023/09/18 05:48:03;;;;;;;10.88;6.72;;;;;;;17.98;100.00;100608.47;5175554;34;33707;-85
2023/09/18 05:51:07;;;;;;;9.40;6.47;;;;;;;18.09;100.00;100607.75;5200272;34;34650;-85
2023/09/18 05:54:10;;;;;;;14.98;7.45;;;;;;;18.12;100.00;100602.69;5188086;34;32860;-85
2023/09/18 05:57:13;;;;;;;13.35;8.00;;;;;;;18.25;100.00;100596.31;5173279;34;34356;-85
2023/09/18 06:00:17;;;;;;;11.15;7.07;;;;;;;18.34;100.00;100605.88;5164690;34;33932;-85
2023/09/18 06:03:21;;;;;;;10.98;6.43;;;;;;;18.47;100.00;100602.16;5185037;34;34832;-85
2023/09/18 06:06:27;;;;;;;13.80;6.95;;;;;;;18.44;100.00;100602.63;5202627;34;34169;-85
2023/09/18 06:09:30;;;;;;;12.57;7.28;;;;;;;18.47;100.00;100599.44;5186920;34;33935;-85
2023/09/18 06:12:34;;;;;;;15.88;7.47;;;;;;;18.62;100.00;100595.53;5174590;34;34075;-85
2023/09/18 06:15:37;;;;;;;8.88;6.25;;;;;;;18.81;100.00;100602.72;5190242;34;33588;-85
2023/09/18 06:18:39;;;;;;;9.15;6.07;;;;;;;18.96;100.00;100602.34;5197507;34;33602;-85
2023/09/18 06:21:44;;;;;;;10.93;6.53;;;;;;;19.02;100.00;100601.41;5200886;34;34751;-84
2023/09/18 06:24:46;;;;;;;13.15;6.35;;;;;;;19.02;100.00;100599.53;5202698;34;33076;-89
2023/09/18 06:27:50;;;;;;;12.00;6.40;;;;;;;19.09;100.00;100604.88;5188404;34;32980;-89
2023/09/18 06:30:53;;;;;;;11.63;6.70;;;;;;;19.25;100.00;100598.81;5207767;34;33318;-89
2023/09/18 06:33:57;;;;;;;8.43;6.53;;;;;;;19.41;100.00;100596.50;5195545;34;33188;-85
2023/09/18 06:37:00;;;;;;;11.43;6.55;;;;;;;19.41;100.00;100593.78;5181118;34;33358;-85
2023/09/18 06:40:07;;;;;;;11.82;6.82;;;;;;;19.55;100.00;100597.16;5189816;34;33362;-85
2023/09/18 06:43:10;;;;;;;10.05;6.18;;;;;;;19.51;100.00;100590.47;5202474;34;33436;-85
2023/09/18 06:46:13;;;;;;;11.35;6.70;;;;;;;19.58;100.00;100593.97;5175643;34;33023;-85
2023/09/18 06:49:16;;;;;;;10.73;6.90;;;;;;;19.62;100.00;100597.88;5177311;34;33267;-85
2023/09/18 06:52:19;;;;;;;9.77;7.40;;;;;;;19.62;100.00;100595.16;5188526;34;35016;-85
2023/09/18 06:55:22;;;;;;;10.95;7.12;;;;;;;19.67;100.00;100595.34;5179931;34;33265;-85
2023/09/18 06:58:25;;;;;;;10.40;7.37;;;;;;;19.78;100.00;100586.34;5172769;34;33111;-85
2023/09/18 07:01:28;;;;;;;11.25;7.07;;;;;;;19.91;100.00;100583.38;5183644;34;33674;-85
2023/09/18 07:04:31;;;;;;;10.13;7.07;;;;;;;19.98;100.00;100582.44;5196415;34;33912;-85
2023/09/18 07:07:34;;;;;;;10.65;6.82;;;;;;;20.10;100.00;100580.59;5186009;34;33283;-85
2023/09/18 07:10:38;;;;;;;9.50;6.43;;;;;;;20.03;100.00;100577.94;5175998;34;33593;-85
2023/09/18 07:13:43;;;;;;;10.68;6.95;;;;;;;20.04;100.00;100581.53;5186993;34;33912;-84
2023/09/18 07:16:46;;;;;;;10.02;6.95;;;;;;;20.24;100.00;100583.91;5188137;34;33407;-85
2023/09/18 07:19:49;;;;;;;10.10;6.57;;;;;;;20.36;100.00;100577.41;5178138;34;33477;-84
2023/09/18 07:22:52;;;;;;;10.38;6.65;;;;;;;20.48;100.00;100579.31;5185303;34;33525;-85
2023/09/18 07:25:55;;;;;;;12.10;6.90;;;;;;;20.73;100.00;100568.94;5195170;34;31982;-85
2023/09/18 07:28:59;;;;;;;10.77;6.45;;;;;;;20.96;100.00;100576.28;5200461;34;33523;-85
2023/09/18 07:32:04;;;;;;;9.93;6.18;;;;;;;21.14;100.00;100578.00;5202557;34;33280;-84
2023/09/18 07:35:08;;;;;;;8.57;5.87;;;;;;;21.15;100.00;100576.97;5173278;34;33433;-84
2023/09/18 07:38:12;;;;;;;10.40;6.35;;;;;;;21.33;100.00;100569.63;5192487;34;32861;-84
2023/09/18 07:41:15;;;;;;;13.20;6.80;;;;;;;21.42;100.00;100579.16;5185140;34;32917;-83
2023/09/18 07:44:20;;;;;;;9.52;6.40;;;;;;;21.46;100.00;100574.84;5177934;34;33021;-84
2023/09/18 07:47:23;;;;;;;9.38;6.07;;;;;;;21.59;100.00;100566.31;5188881;34;33036;-83
2023/09/18 07:50:26;;;;;;;10.20;6.37;;;;;;;21.71;100.00;100575.31;5198413;34;33353;-84
2023/09/18 07:53:31;;;;;;;10.55;6.62;;;;;;;22.01;100.00;100568.69;5185249;34;34130;-84
2023/09/18 07:56:36;;;;;;;8.57;5.95;;;;;;;22.04;100.00;100573.66;5191329;34;34072;-84
2023/09/18 07:59:39;;;;;;;11.88;6.62;;;;;;;22.10;100.00;100563.63;5180490;34;32675;-83
2023/09/18 08:02:43;;;;;;;10.63;6.18;;;;;;;22.16;100.00;100568.94;5184434;34;33681;-84
2023/09/18 08:05:47;;;;;;;9.07;6.80;;;;;;;22.19;100.00;100567.62;5182822;34;34751;-83
2023/09/18 08:08:50;;;;;;;8.80;6.40;;;;;;;22.31;100.00;100573.03;5201938;34;33993;-84
2023/09/18 08:11:55;;;;;;;10.77;6.07;;;;;;;22.36;100.00;100560.22;5201606;34;33213;-84
2023/09/18 08:14:58;;;;;;;10.82;6.43;;;;;;;22.62;100.00;100547.69;5175397;34;34201;-83
2023/09/18 08:18:02;;;;;;;9.00;5.90;;;;;;;22.89;100.00;100548.87;5183186;34;34279;-84
2023/09/18 08:21:05;;;;;;;10.30;6.37;;;;;;;22.86;99.76;100542.78;5173417;34;33102;-84
2023/09/18 08:24:08;;;;;;;12.32;6.50;;;;;;;22.93;99.14;100539.03;5187248;34;33220;-83
2023/09/18 08:27:16;;;;;;;10.80;6.65;;;;;;;23.02;97.70;100538.37;5190108;34;33151;-83
2023/09/18 08:30:20;;;;;;;11.43;6.23;;;;;;;23.11;98.74;100525.00;5208922;34;33284;-88
2023/09/18 08:33:23;;;;;;;8.25;5.95;;;;;;;23.30;98.44;100528.22;5184289;34;33591;-89
2023/09/18 08:36:29;;;;;;;10.55;6.10;;;;;;;23.53;96.71;100527.91;5177278;34;33181;-89
2023/09/18 08:39:36;;;;;;;9.73;6.30;;;;;;;23.60;95.78;100524.13;5166788;34;33421;-85
2023/09/18 08:42:52;;;;;;;10.33;5.97;;;;;;;23.65;95.60;100515.94;5195172;34;33557;-85
2023/09/18 08:46:01;;;;;;;9.60;6.65;;;;;;;23.76;95.56;100520.47;5203395;34;34066;-84
2023/09/18 08:49:05;;;;;;;;;;;;;;;23.67;94.30;100519.25;5204456;34;34133;-85
2023/09/18 08:52:08;;;;;;;9.50;6.50;;;;;;;23.57;95.34;100517.22;5201372;34;33443;-85
2023/09/18 08:55:13;;;;;;;11.40;6.32;;;;;;;23.81;95.43;100515.00;5175893;34;33284;-84
2023/09/18 08:58:19;;;;;;;8.00;6.22;;;;;;;23.92;95.47;100513.97;5179040;34;33332;-84
2023/09/18 09:01:22;;;;;;;10.45;6.82;;;;;;;24.18;94.88;100517.75;5172242;34;33307;-84
2023/09/18 09:04:26;;;;;;;7.37;5.97;;;;;;;24.30;93.14;100520.28;5186760;34;34210;-84
2023/09/18 09:07:31;;;;;;;9.98;6.55;;;;;;;24.15;93.08;100515.53;5197912;34;33032;-84
2023/09/18 09:10:34;;;;;;;11.07;6.15;;;;;;;24.28;91.95;100519.75;5188545;34;33319;-84
2023/09/18 09:13:37;;;;;;;10.13;6.20;;;;;;;24.60;90.70;100516.09;5186089;34;33082;-85
2023/09/18 09:16:49;;;;;;;10.00;6.40;;;;;;;24.72;90.25;100515.91;5180044;34;33344;-84
2023/09/18 09:20:08;;;;;;;9.02;6.28;;;;;;;25.01;90.69;100516.25;5181359;34;33128;-84
2023/09/18 09:23:11;;;;;;;9.23;6.35;;;;;;;25.11;89.40;100522.63;5200793;34;33140;-84
2023/09/18 09:26:16;;;;;;;9.43;6.62;;;;;;;25.06;87.34;100508.84;5178344;34;34165;-84
2023/09/18 09:29:20;;;;;;;10.35;6.25;;;;;;;25.19;88.37;100506.72;5196224;34;33087;-84
2023/09/18 09:32:24;;;;;;;12.02;6.45;;;;;;;25.25;85.93;100506.44;5201503;34;33467;-84
2023/09/18 09:35:30;;;;;;;6.85;6.05;;;;;;;25.40;85.12;100505.66;5186069;34;33322;-84
2023/09/18 09:38:34;;;;;;;8.63;6.05;;;;;;;25.64;85.70;100505.94;5193378;34;33411;-84
2023/09/18 09:41:37;;;;;;;8.45;6.15;;;;;;;25.91;82.79;100499.34;5195179;34;33279;-84
2023/09/18 09:44:41;;;;;;;9.50;6.18;;;;;;;26.06;82.97;100512.28;5201405;34;33013;-84
2023/09/18 09:47:53;;;;;;;8.40;6.22;;;;;;;25.93;81.97;100505.41;5189879;34;34097;-83
2023/09/18 09:50:59;;;;;;;;;;;;;;;25.81;81.33;100494.63;5216964;34;33306;-84
2023/09/18 09:54:02;;;;;;;8.98;6.28;;;;;;;25.85;80.34;100493.00;5185850;34;33108;-85
2023/09/18 09:57:06;;;;;;;10.43;6.55;;;;;;;26.06;80.07;100485.53;5183862;34;34124;-84
2023/09/18 10:00:26;;;;;;;7.30;5.60;;;;;;;26.17;80.25;100484.41;5189726;34;33107;-85
2023/09/18 10:03:33;;;;;;;7.97;6.07;;;;;;;26.02;80.49;100474.22;5187674;34;33270;-85
2023/09/18 10:06:38;;;;;;;7.68;6.20;;;;;;;26.29;78.40;100473.06;5193506;34;33354;-84
2023/09/18 10:09:42;;;;;;;7.45;6.20;;;;;;;26.30;77.30;100462.88;5186583;34;33026;-85
2023/09/18 10:12:48;;;;;;;6.20;5.50;;;;;;;26.36;78.02;100459.81;5177838;34;32846;-85
2023/09/18 10:15:53;;;;;;;8.63;6.18;;;;;;;26.58;76.84;100450.34;5177672;34;33531;-84
2023/09/18 10:19:09;;;;;;;7.47;5.85;;;;;;;26.77;75.49;100448.62;5201056;34;33121;-84
2023/09/18 10:22:27;;;;;;;8.32;6.50;;;;;;;26.67;75.84;100451.41;5189905;34;33463;-85
2023/09/18 10:25:32;;;;;;;7.55;5.90;;;;;;;26.92;75.14;100440.25;5188934;34;33543;-84
2023/09/18 10:28:36;;;;;;;9.15;5.68;;;;;;;27.26;72.80;100447.81;5194959;34;32906;-83
2023/09/18 10:31:43;;;;;;;9.05;5.78;;;;;;;27.32;72.03;100438.34;5189703;34;34001;-84
2023/09/18 10:34:47;;;;;;;8.82;6.00;;;;;;;27.23;73.81;100429.03;5201228;34;33355;-84
2023/09/18 10:37:54;;;;;;;9.52;6.28;;;;;;;27.61;71.23;100426.47;5189045;34;33259;-84
2023/09/18 10:40:58;;;;;;;9.73;6.12;;;;;;;27.47;71.86;100420.00;5203155;34;32965;-84
2023/09/18 10:44:04;;;;;;;8.38;5.90;;;;;;;27.44;72.22;100421.41;5173130;34;34344;-84
2023/09/18 10:47:11;;;;;;;6.90;5.47;;;;;;;27.75;69.50;100416.41;5200910;34;34177;-83
2023/09/18 10:50:24;;;;;;;6.62;5.97;;;;;;;28.04;69.63;100405.31;5202254;34;34518;-84
2023/09/18 10:53:27;;;;;;;9.55;5.70;;;;;;;28.23;69.40;100399.87;5189695;34;34415;-84
2023/09/18 10:56:31;;;;;;;10.55;6.05;;;;;;;28.60;67.98;100386.41;5201800;34;33594;-84
2023/09/18 10:59:43;;;;;;;7.50;5.68;;;;;;;29.01;65.02;100389.41;5190500;34;33581;-84
2023/09/18 11:02:46;;;;;;;8.30;5.95;;;;;;;28.98;64.67;100390.00;5189355;34;32977;-87
2023/09/18 11:06:03;;;;;;;8.25;5.43;;;;;;;29.36;63.37;100385.25;5189967;34;34050;-88
2023/09/18 11:09:09;;;;;;;9.95;5.85;;;;;;;29.66;62.68;100390.59;5200196;34;33538;-84
2023/09/18 11:12:16;;;;;;;8.15;5.75;;;;;;;29.74;62.29;100381.56;5217212;34;33023;-84
2023/09/18 11:15:30;;;;;;;9.30;6.18;;;;;;;29.66;62.20;100388.66;5202827;34;33335;-84
2023/09/18 11:18:34;;;;;;;7.22;5.93;;;;;;;29.49;62.44;100375.34;5184455;34;33355;-84
2023/09/18 11:21:38;;;;;;;8.88;6.00;;;;;;;29.88;61.73;100371.31;5186569;34;33396;-84
2023/09/18 11:24:41;;;;;;;7.47;5.80;;;;;;;30.33;60.88;100371.53;5201589;34;33055;-83
2023/09/18 11:27:54;;;;;;;7.82;5.90;;;;;;;29.97;59.59;100355.56;5189280;34;33483;-84
2023/09/18 11:31:00;;;;;;;10.10;6.35;;;;;;;31.06;55.68;100352.09;5199455;34;33413;-84
2023/09/18 11:34:11;;;;;;;10.43;6.10;;;;;;;32.03;51.47;100355.97;5193107;34;32909;-84
2023/09/18 11:37:22;;;;;;;10.35;5.85;;;;;;;30.87;53.55;100352.31;5198324;34;33405;-84
2023/09/18 11:40:37;;;;;;;7.15;5.47;;;;;;;30.10;56.05;100342.84;5206370;34;33394;-84
2023/09/18 11:43:41;;;;;;;8.65;5.78;;;;;;;29.88;55.80;100348.28;5218027;34;33248;-84
2023/09/18 11:46:51;;;;;;;7.70;5.50;;;;;;;29.28;57.40;100355.47;5187157;34;34205;-84
2023/09/18 11:50:00;;;;;;;7.78;5.78;;;;;;;29.10;58.78;100346.03;5197773;34;33421;-84
2023/09/18 11:53:06;;;;;;;8.00;5.97;;;;;;;28.97;59.35;100337.66;5190126;34;33467;-84
2023/09/18 11:56:17;;;;;;;9.10;5.93;;;;;;;29.99;56.49;100336.66;5191609;34;33313;-84
2023/09/18 11:59:39;;;;;;;7.53;5.70;;;;;;;30.89;52.27;100323.06;5190623;34;33081;-84
2023/09/18 12:02:48;;;;;;;10.30;5.35;;;;;;;31.21;51.70;100317.53;5205886;34;34422;-85
2023/09/18 12:05:57;;;;;;;7.80;5.78;;;;;;;32.42;48.46;100314.44;5209733;34;33707;-84
2023/09/18 12:09:00;;;;;;;8.48;5.57;;;;;;;32.66;48.14;100302.84;5208960;34;33256;-85
2023/09/18 12:12:06;;;;;;;7.47;5.70;;;;;;;34.84;43.21;100302.75;5193346;34;33028;-84
2023/09/18 12:15:15;;;;;;;6.32;4.90;;;;;;;35.73;38.80;100303.12;5202342;34;33419;-85
2023/09/18 12:18:18;;;;;;;5.97;5.05;;;;;;;36.09;36.53;100291.09;5197747;34;33046;-84
2023/09/18 12:21:21;;;;;;;10.40;5.53;;;;;;;36.57;35.60;100285.78;5198151;34;33485;-85
2023/09/18 12:24:25;;;;;;;5.57;4.78;;;;;;;36.43;35.31;100288.94;5190858;34;33708;-84
2023/09/18 12:27:29;;;;;;;6.25;5.05;;;;;;;34.90;37.74;100298.59;5186628;34;33587;-85
2023/09/18 12:30:33;;;;;;;6.35;5.10;;;;;;;35.12;37.98;100286.19;5183803;34;34366;-85
2023/09/18 12:33:37;;;;;;;7.15;5.20;;;;;;;36.00;36.17;100281.16;5204309;34;33296;-85
2023/09/18 12:36:47;;;;;;;6.85;4.95;;;;;;;36.91;34.38;100286.31;5192378;34;33082;-85
2023/09/18 12:39:51;;;;;;;6.70;4.85;;;;;;;37.15;32.73;100282.59;5193889;34;33364;-85
2023/09/18 12:42:59;;;;;;;5.82;4.72;;;;;;;37.01;32.35;100266.22;5203684;34;33546;-85
2023/09/18 12:46:03;;;;;;;;;;;;;;;37.46;31.85;100273.38;5211673;34;33829;-84
2023/09/18 12:49:20;;;;;;;8.00;5.30;;;;;;;37.08;31.24;100272.00;5204556;34;33037;-83
2023/09/18 12:52:23;;;;;;;7.75;5.15;;;;;;;38.09;30.05;100256.50;5190733;34;33016;-83
2023/09/18 12:55:27;;;;;;;5.60;5.00;;;;;;;38.23;29.54;100255.16;5190745;34;33505;-83
2023/09/18 12:58:30;;;;;;;7.30;4.95;;;;;;;37.39;30.64;100251.56;5202994;34;33810;-83
2023/09/18 13:01:34;;;;;;;7.12;4.90;;;;;;;36.77;31.27;100247.47;5203611;34;33439;-84
2023/09/18 13:04:37;;;;;;;10.27;5.32;;;;;;;35.87;33.11;100253.16;5191291;34;34202;-84
2023/09/18 13:07:47;;;;;;;6.68;4.90;;;;;;;34.91;34.32;100244.25;5191417;34;33360;-84
2023/09/18 13:10:50;;;;;;;5.85;5.00;;;;;;;33.85;36.23;100237.84;5175517;34;33353;-83
2023/09/18 13:14:00;;;;;;;8.15;5.20;;;;;;;35.11;34.36;100243.41;5194537;34;33387;-83
2023/09/18 13:17:04;;;;;;;9.40;4.85;;;;;;;36.56;31.61;100244.88;5189590;34;34735;-83
2023/09/18 13:20:23;;;;;;;7.20;4.75;;;;;;;36.48;31.54;100235.41;5186190;34;33899;-83
2023/09/18 13:23:34;;;;;;;7.28;4.75;;;;;;;36.47;31.36;100221.75;5196367;34;33362;-88
2023/09/18 13:26:38;;;;;;;8.25;5.43;;;;;;;36.95;31.55;100217.09;5190133;34;32933;-84
2023/09/18 13:29:40;;;;;;;8.63;4.87;;;;;;;37.59;29.99;100213.16;5175132;34;33593;-83
2023/09/18 13:32:44;;;;;;;7.53;4.95;;;;;;;37.28;30.07;100225.19;5187307;34;34371;-84
2023/09/18 13:35:47;;;;;;;8.45;4.80;;;;;;;37.58;29.54;100222.75;5219889;34;33253;-84
2023/09/18 13:38:50;;;;;;;10.05;5.12;;;;;;;36.68;31.19;100221.56;5210431;34;34466;-84
2023/09/18 13:41:53;;;;;;;7.25;5.07;;;;;;;34.06;35.22;100211.94;5206410;34;33293;-83
2023/09/18 13:45:06;;;;;;;5.20;4.53;;;;;;;32.28;38.31;100203.94;5193472;34;33277;-83
2023/09/18 13:48:09;;;;;;;8.80;4.87;;;;;;;32.90;37.96;100190.75;5192912;34;33998;-83
2023/09/18 13:51:12;;;;;;;6.82;5.18;;;;;;;34.33;35.24;100185.41;5192548;34;33387;-84
2023/09/18 13:54:18;;;;;;;10.63;5.05;;;;;;;34.94;34.55;100180.03;5192605;34;33406;-83
2023/09/18 13:57:22;;;;;;;7.03;4.70;;;;;;;35.48;33.06;100181.03;5207706;34;33653;-83
2023/09/18 14:00:26;;;;;;;9.10;4.78;;;;;;;35.26;33.31;100182.34;5187604;34;32126;-83
2023/09/18 14:03:30;;;;;;;8.27;5.62;;;;;;;33.67;35.76;100168.47;5200734;34;34328;-83
2023/09/18 14:06:36;;;;;;;8.77;5.40;;;;;;;32.88;37.75;100171.59;5186423;34;34182;-83
2023/09/18 14:09:39;;;;;;;6.47;5.53;;;;;;;32.52;38.63;100152.47;5190459;34;33436;-82
2023/09/18 14:12:44;;;;;;;7.80;5.37;;;;;;;31.52;40.00;100156.16;5188576;34;33084;-83
2023/09/18 14:15:47;;;;;;;9.15;5.70;;;;;;;30.82;41.64;100161.44;5204485;34;34061;-83
2023/09/18 14:18:54;;;;;;;7.20;5.50;;;;;;;29.93;43.76;100151.09;5205222;34;33653;-83
2023/09/18 14:21:57;;;;;;;7.25;5.50;;;;;;;29.83;44.39;100154.91;5199786;34;33098;-83
2023/09/18 14:25:04;;;;;;;8.82;5.80;;;;;;;29.75;44.81;100145.41;5213089;34;33325;-83
2023/09/18 14:28:07;;;;;;;6.35;5.55;;;;;;;29.55;45.06;100143.84;5210027;34;33390;-82
2023/09/18 14:31:10;;;;;;;7.93;6.07;;;;;;;29.55;44.70;100135.53;5209983;34;33753;-83
2023/09/18 14:34:13;;;;;;;7.65;5.53;;;;;;;29.39;44.72;100139.75;5226228;34;33484;-82
2023/09/18 14:37:16;;;;;;;8.07;5.78;;;;;;;29.18;45.39;100131.03;5208944;34;33387;-83
2023/09/18 14:40:20;;;;;;;9.38;5.45;;;;;;;28.98;46.11;100129.44;5173449;34;34414;-83
2023/09/18 14:43:23;;;;;;;14.77;5.55;;;;;;;28.76;47.13;100112.72;5168990;34;33363;-84
2023/09/18 14:46:26;;;;;;;8.38;5.87;;;;;;;28.67;47.13;100120.91;5190277;34;33378;-83
2023/09/18 14:49:29;;;;;;;8.65;5.40;;;;;;;28.58;47.57;100129.09;5190295;34;32989;-83
2023/09/18 14:52:32;;;;;;;6.85;5.90;;;;;;;28.45;47.41;100124.34;5190066;34;34794;-83
2023/09/18 14:55:35;;;;;;;8.05;5.82;;;;;;;28.20;48.63;100114.50;5189842;34;33219;-83
2023/09/18 14:58:38;;;;;;;7.65;5.60;;;;;;;28.21;48.08;100116.94;5202376;34;33460;-83
2023/09/18 15:01:43;;;;;;;7.97;5.68;;;;;;;28.10;48.14;100114.66;5199490;34;34076;-81
2023/09/18 15:04:47;;;;;;;6.75;5.65;;;;;;;28.12;47.69;100116.00;5207233;34;34300;-82
2023/09/18 15:07:50;;;;;;;6.57;5.75;;;;;;;28.18;47.61;100109.25;5219310;34;32930;-82
2023/09/18 15:10:53;;;;;;;7.22;5.72;;;;;;;28.07;47.65;100116.06;5188613;34;33291;-86
2023/09/18 15:13:56;;;;;;;9.70;6.28;;;;;;;27.98;48.13;100113.16;5188468;34;32972;-85
2023/09/18 15:16:59;;;;;;;8.35;5.43;;;;;;;27.98;48.41;100112.34;5189336;34;33412;-86
2023/09/18 15:20:03;;;;;;;7.55;6.03;;;;;;;28.01;48.44;100111.75;5183261;34;255585;-82
2023/09/18 15:23:07;;;;;;;6.57;5.53;;;;;;;28.03;48.22;100104.78;5189629;34;34049;-83
2023/09/18 15:26:11;;;;;;;9.18;5.60;;;;;;;28.03;48.33;100101.19;5201481;34;33376;-82
2023/09/18 15:29:16;;;;;;;6.15;5.07;;;;;;;27.98;48.67;100099.31;5201789;34;32998;-82
2023/09/18 15:32:20;;;;;;;7.55;5.75;;;;;;;27.95;48.61;100088.84;5189387;34;33873;-82
2023/09/18 15:35:24;;;;;;;8.80;5.95;;;;;;;27.82;48.75;100078.56;5189352;34;34032;-82
2023/09/18 15:38:27;;;;;;;7.28;5.43;;;;;;;27.74;49.30;100071.72;5201530;34;33166;-82
2023/09/18 15:41:31;;;;;;;7.12;5.65;;;;;;;27.68;49.07;100072.94;5189587;34;33328;-82
2023/09/18 15:44:35;;;;;;;6.93;5.50;;;;;;;27.62;49.12;100057.53;5189480;34;33198;-83
2023/09/18 15:47:39;;;;;;;9.43;5.97;;;;;;;27.49;49.58;100055.50;5189357;34;33894;-82
2023/09/18 15:50:44;;;;;;;8.05;6.00;;;;;;;27.47;49.95;100046.69;5201726;34;33139;-82
2023/09/18 15:53:47;;;;;;;7.20;5.85;;;;;;;27.37;50.39;100028.28;5189364;34;33356;-82
2023/09/18 15:56:50;;;;;;;7.85;5.57;;;;;;;27.36;50.42;100033.00;5203898;34;33417;-82
